sensor_id;sensor_type;location;lat;lon;timestamp;pressure;altitude;pressure_sealevel;temperature;humidity
72465;BME280;60471;52.150;4.508;2023-09-19T00:00:31;100379.88;;;18.15;49.02
72465;BME280;60471;52.150;4.508;2023-09-19T00:03:00;100392.19;;;18.07;49.43
72465;BME280;60471;52.150;4.508;2023-09-19T00:05:27;100399.59;;;18.34;48.71
72465;BME280;60471;52.150;4.508;2023-09-19T00:07:56;100401.09;;;18.17;49.46
72465;BME280;60471;52.150;4.508;2023-09-19T00:10:27;100386.59;;;17.89;50.12
72465;BME280;60471;52.150;4.508;2023-09-19T00:12:58;100398.53;;;17.85;50.83
72465;BME280;60471;52.150;4.508;2023-09-19T00:15:36;100406.38;;;18.07;50.14
72465;BME280;60471;52.150;4.508;2023-09-19T00:18:05;100396.13;;;18.12;50.02
72465;BME280;60471;52.150;4.508;2023-09-19T00:20:38;100401.53;;;18.22;50.01
72465;BME280;60471;52.150;4.508;2023-09-19T00:23:05;100397.31;;;18.19;50.29
72465;BME280;60471;52.150;4.508;2023-09-19T00:25:31;100403.91;;;17.94;51.15
72465;BME280;60471;52.150;4.508;2023-09-19T00:28:01;100395.63;;;17.98;51.58
72465;BME280;60471;52.150;4.508;2023-09-19T00:30:28;100402.72;;;18.08;52.15
72465;BME280;60471;52.150;4.508;2023-09-19T00:32:54;100410.81;;;17.97;52.79
72465;BME280;60471;52.150;4.508;2023-09-19T00:35:21;100412.25;;;17.80;53.51
72465;BME280;60471;52.150;4.508;2023-09-19T00:37:52;100407.44;;;17.74;53.29
72465;BME280;60471;52.150;4.508;2023-09-19T00:40:19;100400.78;;;17.89;52.74
72465;BME280;60471;52.150;4.508;2023-09-19T00:42:48;100410.75;;;18.08;52.49
72465;BME280;60471;52.150;4.508;2023-09-19T00:45:17;100413.13;;;18.11;52.01
72465;BME280;60471;52.150;4.508;2023-09-19T00:47:45;100405.81;;;18.04;52.68
72465;BME280;60471;52.150;4.508;2023-09-19T00:50:17;100405.97;;;18.12;52.65
72465;BME280;60471;52.150;4.508;2023-09-19T00:52:48;100408.78;;;18.10;52.77
72465;BME280;60471;52.150;4.508;2023-09-19T00:55:19;100419.06;;;18.15;53.08
72465;BME280;60471;52.150;4.508;2023-09-19T00:57:46;100415.28;;;18.17;53.48
72465;BME280;60471;52.150;4.508;2023-09-19T01:00:16;100426.69;;;18.50;53.24
72465;BME280;60471;52.150;4.508;2023-09-19T01:02:47;100422.06;;;18.01;54.32
72465;BME280;60471;52.150;4.508;2023-09-19T01:05:14;100426.03;;;18.27;54.25
72465;BME280;60471;52.150;4.508;2023-09-19T01:07:41;100417.13;;;18.17;54.54
72465;BME280;60471;52.150;4.508;2023-09-19T01:10:10;100467.44;;;18.01;54.58
72465;BME280;60471;52.150;4.508;2023-09-19T01:22:00;100439.00;;;17.90;55.40
72465;BME280;60471;52.150;4.508;2023-09-19T01:30:40;100432.66;;;18.12;54.19
72465;BME280;60471;52.150;4.508;2023-09-19T01:33:10;100449.69;;;17.90;55.33
72465;BME280;60471;52.150;4.508;2023-09-19T01:35:40;100431.78;;;17.81;56.37
72465;BME280;60471;52.150;4.508;2023-09-19T01:38:06;100447.34;;;17.64;56.73
72465;BME280;60471;52.150;4.508;2023-09-19T01:40:42;100459.31;;;17.81;56.57
72465;BME280;60471;52.150;4.508;2023-09-19T01:43:24;100432.94;;;17.88;56.55
72465;BME280;60471;52.150;4.508;2023-09-19T01:46:21;100435.09;;;17.94;56.16
72465;BME280;60471;52.150;4.508;2023-09-19T01:49:18;100452.03;;;17.83;56.75
72465;BME280;60471;52.150;4.508;2023-09-19T01:52:09;100435.84;;;17.64;56.78
72465;BME280;60471;52.150;4.508;2023-09-19T01:54:51;100445.25;;;17.68;56.35
72465;BME280;60471;52.150;4.508;2023-09-19T01:57:32;100425.28;;;17.74;56.18
72465;BME280;60471;52.150;4.508;2023-09-19T02:00:06;100431.66;;;17.82;55.17
72465;BME280;60471;52.150;4.508;2023-09-19T02:02:40;100426.59;;;17.68;56.24
72465;BME280;60471;52.150;4.508;2023-09-19T02:05:10;100442.53;;;17.70;56.25
72465;BME280;60471;52.150;4.508;2023-09-19T02:07:38;100431.22;;;17.66;56.78
72465;BME280;60471;52.150;4.508;2023-09-19T02:10:06;100430.22;;;17.67;57.23
72465;BME280;60471;52.150;4.508;2023-09-19T02:12:33;100439.13;;;17.56;57.17
72465;BME280;60471;52.150;4.508;2023-09-19T02:15:00;100441.31;;;17.62;57.36
72465;BME280;60471;52.150;4.508;2023-09-19T02:17:26;100472.13;;;17.55;57.07
72465;BME280;60471;52.150;4.508;2023-09-19T02:19:53;100437.22;;;17.79;55.92
72465;BME280;60471;52.150;4.508;2023-09-19T02:22:21;100471.28;;;17.55;56.29
72465;BME280;60471;52.150;4.508;2023-09-19T02:24:48;100430.38;;;17.65;56.11
72465;BME280;60471;52.150;4.508;2023-09-19T02:27:14;100451.41;;;17.59;56.31
72465;BME280;60471;52.150;4.508;2023-09-19T02:29:42;100446.50;;;17.64;56.21
72465;BME280;60471;52.150;4.508;2023-09-19T02:32:08;100459.44;;;17.68;56.31
72465;BME280;60471;52.150;4.508;2023-09-19T02:34:37;100453.09;;;17.60;55.28
72465;BME280;60471;52.150;4.508;2023-09-19T02:37:05;100446.47;;;17.75;55.07
72465;BME280;60471;52.150;4.508;2023-09-19T02:39:32;100468.41;;;17.79;54.75
72465;BME280;60471;52.150;4.508;2023-09-19T02:41:58;100447.13;;;17.56;55.31
72465;BME280;60471;52.150;4.508;2023-09-19T02:44:24;100458.59;;;17.68;55.11
72465;BME280;60471;52.150;4.508;2023-09-19T02:46:51;100463.81;;;17.81;55.02
72465;BME280;60471;52.150;4.508;2023-09-19T02:49:17;100435.69;;;17.65;55.57
72465;BME280;60471;52.150;4.508;2023-09-19T02:51:44;100435.41;;;17.80;55.34
72465;BME280;60471;52.150;4.508;2023-09-19T02:54:11;100442.84;;;17.76;56.09
72465;BME280;60471;52.150;4.508;2023-09-19T02:56:37;100436.31;;;17.69;56.51
72465;BME280;60471;52.150;4.508;2023-09-19T02:59:04;100447.97;;;17.89;56.18
72465;BME280;60471;52.150;4.508;2023-09-19T03:01:31;100452.47;;;17.88;56.09
72465;BME280;60471;52.150;4.508;2023-09-19T03:03:58;100447.19;;;17.77;56.69
72465;BME280;60471;52.150;4.508;2023-09-19T03:06:24;100450.13;;;17.74;57.00
72465;BME280;60471;52.150;4.508;2023-09-19T03:08:50;100448.97;;;17.88;56.55
72465;BME280;60471;52.150;4.508;2023-09-19T03:11:17;100478.03;;;18.02;56.19
72465;BME280;60471;52.150;4.508;2023-09-19T03:13:52;100457.25;;;17.85;57.89
72465;BME280;60471;52.150;4.508;2023-09-19T03:16:19;100464.84;;;17.89;57.66
72465;BME280;60471;52.150;4.508;2023-09-19T03:18:48;100455.75;;;17.92;57.47
72465;BME280;60471;52.150;4.508;2023-09-19T03:21:15;100437.91;;;17.92;57.95
72465;BME280;60471;52.150;4.508;2023-09-19T03:23:43;100420.06;;;17.72;58.49
72465;BME280;60471;52.150;4.508;2023-09-19T03:26:13;100435.56;;;17.67;58.30
72465;BME280;60471;52.150;4.508;2023-09-19T03:28:41;100439.22;;;17.66;58.08
72465;BME280;60471;52.150;4.508;2023-09-19T03:31:09;100430.47;;;17.75;58.24
72465;BME280;60471;52.150;4.508;2023-09-19T03:33:36;100444.31;;;17.69;57.48
72465;BME280;60471;52.150;4.508;2023-09-19T03:36:03;100424.63;;;17.81;56.99
72465;BME280;60471;52.150;4.508;2023-09-19T03:38:33;100453.50;;;17.76;56.81
72465;BME280;60471;52.150;4.508;2023-09-19T03:41:01;100440.75;;;17.80;56.75
72465;BME280;60471;52.150;4.508;2023-09-19T03:43:27;100469.03;;;17.82;56.68
72465;BME280;60471;52.150;4.508;2023-09-19T03:45:54;100448.25;;;17.86;56.59
72465;BME280;60471;52.150;4.508;2023-09-19T03:48:20;100479.63;;;17.73;56.63
72465;BME280;60471;52.150;4.508;2023-09-19T03:50:47;100453.84;;;17.83;56.50
72465;BME280;60471;52.150;4.508;2023-09-19T03:53:14;100459.56;;;17.78;56.47
72465;BME280;60471;52.150;4.508;2023-09-19T03:55:40;100493.16;;;17.49;56.64
72465;BME280;60471;52.150;4.508;2023-09-19T03:58:06;100465.38;;;17.51;56.20
72465;BME280;60471;52.150;4.508;2023-09-19T04:00:32;100454.44;;;17.54;56.24
72465;BME280;60471;52.150;4.508;2023-09-19T04:03:00;100462.63;;;17.74;56.10
72465;BME280;60471;52.150;4.508;2023-09-19T04:05:31;100475.34;;;17.81;56.17
72465;BME280;60471;52.150;4.508;2023-09-19T04:07:58;100463.63;;;17.61;56.37
72465;BME280;60471;52.150;4.508;2023-09-19T04:10:24;100460.34;;;17.58;56.50
72465;BME280;60471;52.150;4.508;2023-09-19T04:12:55;100492.97;;;17.61;56.42
72465;BME280;60471;52.150;4.508;2023-09-19T04:15:23;100474.88;;;17.76;56.60
72465;BME280;60471;52.150;4.508;2023-09-19T04:17:50;100468.97;;;17.61;57.49
72465;BME280;60471;52.150;4.508;2023-09-19T04:20:18;100497.47;;;17.61;58.06
72465;BME280;60471;52.150;4.508;2023-09-19T04:22:51;100504.28;;;17.54;57.35
72465;BME280;60471;52.150;4.508;2023-09-19T04:25:17;100487.81;;;17.49;57.35
72465;BME280;60471;52.150;4.508;2023-09-19T04:27:44;100533.75;;;17.52;56.07
72465;BME280;60471;52.150;4.508;2023-09-19T04:30:11;100495.44;;;17.53;55.81
72465;BME280;60471;52.150;4.508;2023-09-19T04:32:38;100495.69;;;17.50;55.14
72465;BME280;60471;52.150;4.508;2023-09-19T04:35:08;100486.31;;;17.56;55.05
72465;BME280;60471;52.150;4.508;2023-09-19T04:37:40;100494.13;;;17.48;55.04
72465;BME280;60471;52.150;4.508;2023-09-19T04:40:08;100504.75;;;17.59;55.04
72465;BME280;60471;52.150;4.508;2023-09-19T04:42:39;100499.75;;;17.65;54.98
72465;BME280;60471;52.150;4.508;2023-09-19T04:45:07;100515.63;;;17.67;54.94
72465;BME280;60471;52.150;4.508;2023-09-19T04:47:34;100512.09;;;17.66;54.69
72465;BME280;60471;52.150;4.508;2023-09-19T04:50:00;100522.84;;;17.44;54.87
72465;BME280;60471;52.150;4.508;2023-09-19T04:52:27;100501.34;;;17.57;54.62
72465;BME280;60471;52.150;4.508;2023-09-19T04:54:56;100511.19;;;17.45;54.92
72465;BME280;60471;52.150;4.508;2023-09-19T04:57:23;100483.50;;;17.57;54.89
72465;BME280;60471;52.150;4.508;2023-09-19T04:59:49;100500.31;;;17.48;55.19
72465;BME280;60471;52.150;4.508;2023-09-19T05:02:16;100506.22;;;17.52;55.10
72465;BME280;60471;52.150;4.508;2023-09-19T05:04:42;100496.66;;;17.49;55.43
72465;BME280;60471;52.150;4.508;2023-09-19T05:07:08;100499.84;;;17.32;56.23
72465;BME280;60471;52.150;4.508;2023-09-19T05:09:34;100505.13;;;17.54;55.74
72465;BME280;60471;52.150;4.508;2023-09-19T05:12:03;100522.38;;;17.50;56.34
72465;BME280;60471;52.150;4.508;2023-09-19T05:14:29;100487.16;;;17.56;56.27
72465;BME280;60471;52.150;4.508;2023-09-19T05:16:55;100482.63;;;17.36;57.14
72465;BME280;60471;52.150;4.508;2023-09-19T05:19:22;100502.50;;;17.32;57.60
72465;BME280;60471;52.150;4.508;2023-09-19T05:21:48;100484.22;;;17.27;57.66
72465;BME280;60471;52.150;4.508;2023-09-19T05:24:14;100486.66;;;17.30;58.15
72465;BME280;60471;52.150;4.508;2023-09-19T05:26:42;100494.06;;;17.27;58.46
72465;BME280;60471;52.150;4.508;2023-09-19T05:29:09;100486.66;;;17.30;58.48
72465;BME280;60471;52.150;4.508;2023-09-19T05:31:35;100487.72;;;17.39;58.50
72465;BME280;60471;52.150;4.508;2023-09-19T05:34:05;100503.53;;;17.63;57.93
72465;BME280;60471;52.150;4.508;2023-09-19T05:36:32;100532.31;;;17.48;58.08
72465;BME280;60471;52.150;4.508;2023-09-19T05:38:59;100521.97;;;17.55;58.26
72465;BME280;60471;52.150;4.508;2023-09-19T05:41:25;100503.81;;;17.49;58.36
72465;BME280;60471;52.150;4.508;2023-09-19T05:43:51;100500.41;;;17.47;58.52
72465;BME280;60471;52.150;4.508;2023-09-19T05:46:18;100503.66;;;17.61;58.49
72465;BME280;60471;52.150;4.508;2023-09-19T05:48:44;100507.88;;;17.64;58.52
72465;BME280;60471;52.150;4.508;2023-09-19T05:51:13;100529.97;;;17.55;58.74
72465;BME280;60471;52.150;4.508;2023-09-19T05:53:40;100521.59;;;17.71;58.98
72465;BME280;60471;52.150;4.508;2023-09-19T05:56:09;100512.94;;;17.67;58.81
72465;BME280;60471;52.150;4.508;2023-09-19T05:58:37;100511.03;;;17.58;59.99
72465;BME280;60471;52.150;4.508;2023-09-19T06:01:04;100506.44;;;17.71;59.52
72465;BME280;60471;52.150;4.508;2023-09-19T06:03:30;100504.09;;;17.66;59.77
72465;BME280;60471;52.150;4.508;2023-09-19T06:05:57;100516.72;;;17.64;59.68
72465;BME280;60471;52.150;4.508;2023-09-19T06:08:23;100503.50;;;17.74;59.58
72465;BME280;60471;52.150;4.508;2023-09-19T06:10:50;100527.97;;;17.79;59.31
72465;BME280;60471;52.150;4.508;2023-09-19T06:13:18;100523.03;;;17.75;59.59
72465;BME280;60471;52.150;4.508;2023-09-19T06:15:46;100507.06;;;17.95;58.65
72465;BME280;60471;52.150;4.508;2023-09-19T06:18:15;100525.78;;;17.84;58.06
72465;BME280;60471;52.150;4.508;2023-09-19T06:20:48;100508.25;;;18.23;57.31
72465;BME280;60471;52.150;4.508;2023-09-19T06:23:16;100534.28;;;17.78;62.24
72465;BME280;60471;52.150;4.508;2023-09-19T06:25:43;100512.06;;;17.46;64.20
72465;BME280;60471;52.150;4.508;2023-09-19T06:28:09;100523.47;;;17.48;65.05
72465;BME280;60471;52.150;4.508;2023-09-19T06:30:38;100527.22;;;17.45;65.38
72465;BME280;60471;52.150;4.508;2023-09-19T06:33:06;100520.81;;;17.25;66.26
72465;BME280;60471;52.150;4.508;2023-09-19T06:35:33;100533.09;;;17.17;64.10
72465;BME280;60471;52.150;4.508;2023-09-19T06:38:03;100525.38;;;17.46;60.79
72465;BME280;60471;52.150;4.508;2023-09-19T06:40:30;100532.50;;;17.56;58.76
72465;BME280;60471;52.150;4.508;2023-09-19T06:42:57;100527.47;;;17.85;57.94
72465;BME280;60471;52.150;4.508;2023-09-19T06:45:23;100534.78;;;17.83;56.92
72465;BME280;60471;52.150;4.508;2023-09-19T06:47:52;100539.25;;;17.83;56.22
72465;BME280;60471;52.150;4.508;2023-09-19T06:50:23;100536.22;;;18.08;56.28
72465;BME280;60471;52.150;4.508;2023-09-19T06:52:53;100565.03;;;18.05;56.33
72465;BME280;60471;52.150;4.508;2023-09-19T06:55:22;100553.44;;;18.15;55.72
72465;BME280;60471;52.150;4.508;2023-09-19T06:57:51;100539.47;;;18.12;55.63
72465;BME280;60471;52.150;4.508;2023-09-19T07:00:17;100537.63;;;18.23;55.34
72465;BME280;60471;52.150;4.508;2023-09-19T07:03:00;100560.06;;;18.21;55.24
72465;BME280;60471;52.150;4.508;2023-09-19T07:05:34;100529.34;;;18.27;55.10
72465;BME280;60471;52.150;4.508;2023-09-19T07:08:06;100537.59;;;18.44;54.98
72465;BME280;60471;52.150;4.508;2023-09-19T07:10:34;100528.94;;;18.31;55.81
72465;BME280;60471;52.150;4.508;2023-09-19T07:13:02;100528.63;;;18.45;56.91
72465;BME280;60471;52.150;4.508;2023-09-19T07:15:32;100532.38;;;18.22;62.29
72465;BME280;60471;52.150;4.508;2023-09-19T07:18:01;100555.28;;;17.83;65.11
72465;BME280;60471;52.150;4.508;2023-09-19T07:20:28;100548.34;;;17.91;65.14
72465;BME280;60471;52.150;4.508;2023-09-19T07:22:58;100532.78;;;17.96;64.99
72465;BME280;60471;52.150;4.508;2023-09-19T07:25:28;100549.59;;;17.76;66.32
72465;BME280;60471;52.150;4.508;2023-09-19T07:27:58;100542.81;;;17.72;66.52
72465;BME280;60471;52.150;4.508;2023-09-19T07:30:28;100547.84;;;17.86;66.17
72465;BME280;60471;52.150;4.508;2023-09-19T07:32:54;100545.22;;;17.64;67.02
72465;BME280;60471;52.150;4.508;2023-09-19T07:35:21;100555.97;;;17.42;67.26
72465;BME280;60471;52.150;4.508;2023-09-19T07:37:47;100577.25;;;17.75;66.74
72465;BME280;60471;52.150;4.508;2023-09-19T07:40:15;100551.72;;;17.50;68.24
72465;BME280;60471;52.150;4.508;2023-09-19T07:42:42;100571.84;;;17.32;69.07
72465;BME280;60471;52.150;4.508;2023-09-19T07:45:10;100575.88;;;17.37;69.95
72465;BME280;60471;52.150;4.508;2023-09-19T07:47:46;100551.44;;;17.53;69.13
72465;BME280;60471;52.150;4.508;2023-09-19T07:50:13;100567.22;;;17.45;69.46
72465;BME280;60471;52.150;4.508;2023-09-19T07:52:42;100554.47;;;17.60;69.57
72465;BME280;60471;52.150;4.508;2023-09-19T07:55:09;100568.31;;;17.54;69.52
72465;BME280;60471;52.150;4.508;2023-09-19T07:57:37;100549.88;;;17.51;69.68
72465;BME280;60471;52.150;4.508;2023-09-19T08:00:04;100551.72;;;17.50;69.37
72465;BME280;60471;52.150;4.508;2023-09-19T08:02:36;100560.78;;;17.59;69.09
72465;BME280;60471;52.150;4.508;2023-09-19T08:05:04;100551.09;;;17.90;67.89
72465;BME280;60471;52.150;4.508;2023-09-19T08:07:32;100550.00;;;17.60;68.93
72465;BME280;60471;52.150;4.508;2023-09-19T08:09:58;100533.59;;;17.65;68.70
72465;BME280;60471;52.150;4.508;2023-09-19T08:12:25;100530.38;;;18.14;67.43
72465;BME280;60471;52.150;4.508;2023-09-19T08:14:51;100534.09;;;18.02;67.73
72465;BME280;60471;52.150;4.508;2023-09-19T08:17:17;100527.53;;;17.74;67.90
72465;BME280;60471;52.150;4.508;2023-09-19T08:19:45;100540.28;;;17.71;68.52
72465;BME280;60471;52.150;4.508;2023-09-19T08:22:12;100529.56;;;17.82;68.10
72465;BME280;60471;52.150;4.508;2023-09-19T08:24:38;100555.41;;;18.13;66.89
72465;BME280;60471;52.150;4.508;2023-09-19T08:27:04;100550.88;;;17.93;66.84
72465;BME280;60471;52.150;4.508;2023-09-19T08:29:33;100548.22;;;17.93;67.54
72465;BME280;60471;52.150;4.508;2023-09-19T08:32:01;100535.66;;;17.73;67.28
72465;BME280;60471;52.150;4.508;2023-09-19T08:34:27;100530.78;;;17.66;68.19
72465;BME280;60471;52.150;4.508;2023-09-19T08:36:54;100525.47;;;17.55;67.79
72465;BME280;60471;52.150;4.508;2023-09-19T08:39:22;100534.38;;;17.45;68.53
72465;BME280;60471;52.150;4.508;2023-09-19T08:41:49;100582.13;;;17.70;68.12
72465;BME280;60471;52.150;4.508;2023-09-19T08:44:15;100542.44;;;17.65;68.24
72465;BME280;60471;52.150;4.508;2023-09-19T08:46:43;100565.53;;;17.44;68.42
72465;BME280;60471;52.150;4.508;2023-09-19T08:49:19;100550.44;;;17.77;67.60
72465;BME280;60471;52.150;4.508;2023-09-19T08:52:03;100540.88;;;17.63;67.86
72465;BME280;60471;52.150;4.508;2023-09-19T08:54:38;100557.50;;;17.55;68.08
72465;BME280;60471;52.150;4.508;2023-09-19T08:57:07;100602.75;;;17.46;69.23
72465;BME280;60471;52.150;4.508;2023-09-19T08:59:41;100537.13;;;17.54;69.09
72465;BME280;60471;52.150;4.508;2023-09-19T09:02:11;100572.44;;;17.35;69.86
72465;BME280;60471;52.150;4.508;2023-09-19T09:04:43;100539.47;;;17.48;71.17
72465;BME280;60471;52.150;4.508;2023-09-19T09:07:11;100552.50;;;17.07;72.52
72465;BME280;60471;52.150;4.508;2023-09-19T09:09:42;100523.13;;;17.84;70.64
72465;BME280;60471;52.150;4.508;2023-09-19T09:12:13;100526.81;;;18.25;68.67
72465;BME280;60471;52.150;4.508;2023-09-19T09:14:45;100549.47;;;18.31;67.71
72465;BME280;60471;52.150;4.508;2023-09-19T09:17:16;100557.22;;;18.54;66.65
72465;BME280;60471;52.150;4.508;2023-09-19T09:19:46;100551.94;;;18.43;66.15
72465;BME280;60471;52.150;4.508;2023-09-19T09:22:15;100537.16;;;18.60;64.90
72465;BME280;60471;52.150;4.508;2023-09-19T09:24:56;100533.56;;;18.71;65.43
72465;BME280;60471;52.150;4.508;2023-09-19T09:27:24;100541.31;;;18.53;65.89
72465;BME280;60471;52.150;4.508;2023-09-19T09:29:52;100546.53;;;18.75;64.44
72465;BME280;60471;52.150;4.508;2023-09-19T09:32:28;100521.09;;;18.81;65.06
72465;BME280;60471;52.150;4.508;2023-09-19T09:34:57;100569.41;;;18.47;65.63
72465;BME280;60471;52.150;4.508;2023-09-19T09:37:27;100528.56;;;18.57;65.24
72465;BME280;60471;52.150;4.508;2023-09-19T09:39:57;100554.72;;;18.83;64.51
72465;BME280;60471;52.150;4.508;2023-09-19T09:42:43;100520.16;;;18.92;64.51
72465;BME280;60471;52.150;4.508;2023-09-19T09:45:21;100525.81;;;18.98;63.60
72465;BME280;60471;52.150;4.508;2023-09-19T09:48:00;100507.75;;;19.21;63.53
72465;BME280;60471;52.150;4.508;2023-09-19T09:50:33;100520.72;;;18.95;63.93
72465;BME280;60471;52.150;4.508;2023-09-19T09:53:25;100510.50;;;18.70;64.77
72465;BME280;60471;52.150;4.508;2023-09-19T09:56:09;100508.03;;;18.88;64.67
72465;BME280;60471;52.150;4.508;2023-09-19T09:58:37;100527.59;;;18.88;63.87
72465;BME280;60471;52.150;4.508;2023-09-19T10:01:15;100517.72;;;19.29;63.13
72465;BME280;60471;52.150;4.508;2023-09-19T10:03:42;100500.19;;;20.33;60.04
72465;BME280;60471;52.150;4.508;2023-09-19T10:06:15;100483.75;;;19.79;61.11
72465;BME280;60471;52.150;4.508;2023-09-19T10:11:47;100499.53;;;19.82;61.56
72465;BME280;60471;52.150;4.508;2023-09-19T10:14:26;100529.22;;;19.10;63.07
72465;BME280;60471;52.150;4.508;2023-09-19T10:16:59;100535.84;;;19.06;63.77
72465;BME280;60471;52.150;4.508;2023-09-19T10:22:18;100478.84;;;19.15;63.27
72465;BME280;60471;52.150;4.508;2023-09-19T10:24:49;100499.19;;;19.47;62.36
72465;BME280;60471;52.150;4.508;2023-09-19T10:27:20;100501.91;;;19.56;61.98
72465;BME280;60471;52.150;4.508;2023-09-19T10:29:49;100484.28;;;19.54;62.13
72465;BME280;60471;52.150;4.508;2023-09-19T10:32:21;100466.47;;;20.30;60.63
72465;BME280;60471;52.150;4.508;2023-09-19T10:34:49;100532.59;;;20.30;59.82
72465;BME280;60471;52.150;4.508;2023-09-19T10:37:16;100512.72;;;19.55;61.81
72465;BME280;60471;52.150;4.508;2023-09-19T10:39:46;100498.06;;;19.49;63.31
72465;BME280;60471;52.150;4.508;2023-09-19T10:42:19;100448.50;;;19.55;63.16
72465;BME280;60471;52.150;4.508;2023-09-19T10:44:52;100473.56;;;19.54;63.97
72465;BME280;60471;52.150;4.508;2023-09-19T10:47:21;100492.28;;;19.34;64.42
72465;BME280;60471;52.150;4.508;2023-09-19T10:49:50;100504.00;;;19.43;63.87
72465;BME280;60471;52.150;4.508;2023-09-19T10:52:20;100463.84;;;20.11;61.49
72465;BME280;60471;52.150;4.508;2023-09-19T10:54:52;100544.19;;;20.20;60.80
72465;BME280;60471;52.150;4.508;2023-09-19T10:57:24;100455.13;;;19.80;62.29
72465;BME280;60471;52.150;4.508;2023-09-19T11:00:09;100442.44;;;19.82;61.84
72465;BME280;60471;52.150;4.508;2023-09-19T11:06:03;100454.69;;;20.04;61.34
72465;BME280;60471;52.150;4.508;2023-09-19T11:08:55;100445.53;;;19.48;63.39
72465;BME280;60471;52.150;4.508;2023-09-19T11:30:32;100502.31;;;19.02;65.65
72465;BME280;60471;52.150;4.508;2023-09-19T11:33:28;100496.59;;;18.55;68.05
72465;BME280;60471;52.150;4.508;2023-09-19T11:36:04;100465.84;;;18.61;67.84
72465;BME280;60471;52.150;4.508;2023-09-19T11:49:19;100518.09;;;18.53;69.65
72465;BME280;60471;52.150;4.508;2023-09-19T11:51:52;100449.19;;;18.47;70.07
72465;BME280;60471;52.150;4.508;2023-09-19T11:54:19;100460.41;;;18.41;70.84
72465;BME280;60471;52.150;4.508;2023-09-19T11:56:54;100443.31;;;18.33;71.38
72465;BME280;60471;52.150;4.508;2023-09-19T11:59:25;100450.00;;;18.17;72.25
72465;BME280;60471;52.150;4.508;2023-09-19T12:01:56;100519.25;;;18.30;71.73
72465;BME280;60471;52.150;4.508;2023-09-19T12:04:35;100513.53;;;18.35;71.76
72465;BME280;60471;52.150;4.508;2023-09-19T12:07:08;100464.13;;;18.29;72.15
72465;BME280;60471;52.150;4.508;2023-09-19T12:09:42;100455.47;;;18.37;72.00
72465;BME280;60471;52.150;4.508;2023-09-19T12:12:10;100424.16;;;18.79;70.03
72465;BME280;60471;52.150;4.508;2023-09-19T12:14:47;100515.31;;;19.76;66.07
72465;BME280;60471;52.150;4.508;2023-09-19T12:17:15;100534.03;;;20.53;61.67
72465;BME280;60471;52.150;4.508;2023-09-19T12:19:55;100455.84;;;20.38;62.67
72465;BME280;60471;52.150;4.508;2023-09-19T12:22:22;100489.19;;;20.07;63.25
72465;BME280;60471;52.150;4.508;2023-09-19T12:24:49;100445.25;;;20.00;64.32
72465;BME280;60471;52.150;4.508;2023-09-19T12:27:16;100470.75;;;19.84;64.64
72465;BME280;60471;52.150;4.508;2023-09-19T12:29:43;100462.63;;;19.76;64.59
72465;BME280;60471;52.150;4.508;2023-09-19T12:32:11;100536.16;;;19.82;64.35
72465;BME280;60471;52.150;4.508;2023-09-19T12:34:38;100435.09;;;20.03;63.69
72465;BME280;60471;52.150;4.508;2023-09-19T12:37:15;100456.97;;;19.98;64.48
72465;BME280;60471;52.150;4.508;2023-09-19T12:39:47;100402.69;;;21.87;57.76
72465;BME280;60471;52.150;4.508;2023-09-19T12:42:23;100496.31;;;21.47;58.55
72465;BME280;60471;52.150;4.508;2023-09-19T12:44:55;100446.56;;;20.79;60.66
72465;BME280;60471;52.150;4.508;2023-09-19T12:47:23;100474.06;;;20.35;62.26
72465;BME280;60471;52.150;4.508;2023-09-19T12:50:11;100452.81;;;20.23;63.42
72465;BME280;60471;52.150;4.508;2023-09-19T12:52:49;100478.91;;;20.12;63.50
72465;BME280;60471;52.150;4.508;2023-09-19T12:55:23;100412.97;;;20.01;63.60
72465;BME280;60471;52.150;4.508;2023-09-19T12:58:12;100465.16;;;19.68;64.38
72465;BME280;60471;52.150;4.508;2023-09-19T13:00:40;100440.22;;;19.67;64.76
72465;BME280;60471;52.150;4.508;2023-09-19T13:05:55;100442.00;;;19.38;67.46
72465;BME280;60471;52.150;4.508;2023-09-19T13:08:25;100413.84;;;19.63;66.29
72465;BME280;60471;52.150;4.508;2023-09-19T13:11:05;100483.59;;;19.71;65.98
72465;BME280;60471;52.150;4.508;2023-09-19T13:13:37;100477.22;;;19.33;67.70
72465;BME280;60471;52.150;4.508;2023-09-19T13:16:05;100450.66;;;18.92;70.02
72465;BME280;60471;52.150;4.508;2023-09-19T13:18:44;100447.63;;;18.75;72.10
72465;BME280;60471;52.150;4.508;2023-09-19T13:21:13;100440.09;;;18.90;72.13
72465;BME280;60471;52.150;4.508;2023-09-19T13:24:22;100438.19;;;19.11;71.15
72465;BME280;60471;52.150;4.508;2023-09-19T13:26:51;100438.47;;;19.28;69.91
72465;BME280;60471;52.150;4.508;2023-09-19T13:29:17;100424.94;;;19.20;69.71
72465;BME280;60471;52.150;4.508;2023-09-19T13:31:51;100431.13;;;19.20;68.96
72465;BME280;60471;52.150;4.508;2023-09-19T13:34:19;100440.72;;;19.13;68.53
72465;BME280;60471;52.150;4.508;2023-09-19T13:36:46;100430.25;;;19.10;69.60
72465;BME280;60471;52.150;4.508;2023-09-19T13:39:16;100432.91;;;18.91;70.29
72465;BME280;60471;52.150;4.508;2023-09-19T13:41:49;100450.69;;;18.40;73.23
72465;BME280;60471;52.150;4.508;2023-09-19T13:44:15;100486.47;;;18.28;74.96
72465;BME280;60471;52.150;4.508;2023-09-19T13:46:43;100503.28;;;18.19;76.25
72465;BME280;60471;52.150;4.508;2023-09-19T13:49:11;100434.75;;;18.29;76.35
72465;BME280;60471;52.150;4.508;2023-09-19T13:51:37;100425.03;;;18.28;76.19
72465;BME280;60471;52.150;4.508;2023-09-19T13:54:04;100453.78;;;18.36;75.25
72465;BME280;60471;52.150;4.508;2023-09-19T13:56:31;100414.88;;;18.52;73.10
72465;BME280;60471;52.150;4.508;2023-09-19T13:58:57;100437.22;;;18.72;72.41
72465;BME280;60471;52.150;4.508;2023-09-19T14:01:24;100449.91;;;18.80;71.49